KPAO

Palo Alto Airport

Palo Alto, California, USA
METAR KPAO 230447Z 29005KT 10SM SCT045 08/07 A3031 RMK LAST
Observed Flight Rules
Jan-23 @ 04:47 UTC (7 hours ago) Visual Flight Rules
Wind Visibility Clouds
290° at 5 knots 10 miles
  • Scattered at 4,500' AGL
Temperatures Readings
Current 8°C / 46°F
Dewpoint 7°C / 45°F
Humidity 93%
Altimeter 30.31" Hg
Pressure 1026 hPa
Elevation 2
METAR KPAO 230447Z 29005KT 10SM SCT045 08/07 A3031 RMK LAST
Observed Flight Rules
Jan-23 @ 04:47 UTC
(7 hours ago)
VFR
Wind Visibility
290° at 5 knots 10 miles
Clouds
  • Scattered at 4,500' AGL
Temperature Dewpoint
8°C / 46°F 7°C / 45°F
Humidity Altimeter Pressure
93% 30.31" Hg 1026 hPa